Terminal Aerodrome Forecast
Issued by NWS Burlington, VT

Home | Current Version | Previous Version | Text Only | Print | Product List | Glossary On
Versions: 1 2 3 4 5 6 7 8 9 10 11 12 13 14
000
FTUS41 KBTV 250527
TAFBTV
TAF
KBTV 250527Z 2506/2606 17006KT P6SM OVC250
     FM251200 19009KT P6SM OVC080
     FM251700 19009KT P6SM -SHRA OVC050
     FM260000 17009KT P6SM -SHRA OVC050=

USA.gov is the U.S. government's official web portal to all federal, state and local government web resources and services.